Time;durP1;ratioP1;P1;durP2;ratioP2;P2;SDS_P1;SDS_P2;PMS_P1;PMS_P2;Temp;Humidity;BMP_temperature;BMP_pressure;BME280_temperature;BME280_humidity;BME280_pressure;Samples;Min_cycle;Max_cycle;Signal;HPM_P1;HPM_P2
2023/12/01 00:01:37;;;;;;;;;;;;;;;6.18;58.60;99243.03;4977686;28;7215;-77
2023/12/01 00:04:03;;;;;;;;;;;;;;;6.16;58.24;99240.41;5002754;28;7012;-76
2023/12/01 00:06:29;;;;;;;;;;;;;;;6.15;58.13;99246.28;4987247;28;6784;-76
2023/12/01 00:08:54;;;;;;;;;;;;;;;6.13;58.78;99250.44;4984385;28;6824;-74
2023/12/01 00:11:20;;;;;;;;;;;;;;;6.15;58.82;99253.06;4982411;28;6930;-75
2023/12/01 00:13:45;;;;;;;;;;;;;;;6.17;58.43;99254.00;4984823;28;6791;-75
2023/12/01 00:16:11;;;;;;;;;;;;;;;6.22;58.24;99263.59;4968010;28;6963;-73
2023/12/01 00:18:36;;;;;;;;;;;;;;;6.24;58.18;99262.00;4969724;28;7266;-75
2023/12/01 00:21:02;;;;;;;;;;;;;;;6.23;58.12;99257.72;4986916;28;6866;-74
2023/12/01 00:23:29;;;;;;;;;;;;;;;6.21;57.79;99264.41;4985194;28;7345;-74
2023/12/01 00:25:54;;;;;;;;;;;;;;;6.20;57.90;99259.22;4985515;28;7095;-73
2023/12/01 00:28:20;;;;;;;;;;;;;;;6.19;58.41;99265.13;5000434;28;7084;-73
2023/12/01 00:30:45;;;;;;;;;;;;;;;6.15;57.90;99260.69;4979633;28;6940;-74
2023/12/01 00:33:11;;;;;;;;;;;;;;;6.11;57.74;99259.69;4982076;28;7314;-73
2023/12/01 00:35:36;;;;;;;;;;;;;;;6.13;58.00;99267.38;4987782;28;7259;-73
2023/12/01 00:38:02;;;;;;;;;;;;;;;6.14;58.26;99270.00;4998746;28;6955;-73
2023/12/01 00:40:27;;;;;;;;;;;;;;;6.14;57.55;99270.00;4986373;28;6776;-73
2023/12/01 00:42:52;;;;;;;;;;;;;;;6.14;57.58;99266.59;4962233;28;6940;-74
2023/12/01 00:45:18;;;;;;;;;;;;;;;6.12;58.01;99266.50;4984070;28;6851;-73
2023/12/01 00:47:43;;;;;;;;;;;;;;;6.13;57.87;99268.25;5001633;28;6930;-74
2023/12/01 00:50:09;;;;;;;;;;;;;;;6.10;57.82;99268.13;4983889;28;6966;-73
2023/12/01 00:52:35;;;;;;;;;;;;;;;6.06;57.35;99276.38;4980580;28;7019;-75
2023/12/01 00:55:01;;;;;;;;;;;;;;;6.02;57.84;99275.34;4999062;28;7008;-73
2023/12/01 00:57:26;;;;;;;;;;;;;;;5.97;58.08;99276.78;4987224;28;6856;-73
2023/12/01 00:59:52;;;;;;;;;;;;;;;5.95;57.63;99280.94;4993985;28;6787;-74
2023/12/01 01:02:17;;;;;;;;;;;;;;;5.97;58.08;99276.78;4997351;28;7126;-73
2023/12/01 01:04:43;;;;;;;;;;;;;;;5.98;58.12;99279.38;4981799;28;6780;-73
2023/12/01 01:07:08;;;;;;;;;;;;;;;6.00;57.93;99276.06;4981955;28;6965;-73
2023/12/01 01:09:34;;;;;;;;;;;;;;;6.01;57.72;99282.91;4984558;28;6980;-73
2023/12/01 01:12:01;;;;;;;;;;;;;;;6.00;57.46;99281.16;4986139;28;6788;-74
2023/12/01 01:14:27;;;;;;;;;;;;;;;5.98;57.68;99279.38;4997742;28;7012;-74
2023/12/01 01:16:53;;;;;;;;;;;;;;;5.96;58.02;99280.13;4983625;28;6982;-74
2023/12/01 01:19:18;;;;;;;;;;;;;;;5.95;57.87;99278.41;4981481;28;7160;-74
2023/12/01 01:21:44;;;;;;;;;;;;;;;5.92;57.46;99280.78;4981808;28;10493;-75
2023/12/01 01:24:09;;;;;;;;;;;;;;;5.89;57.99;99283.16;4957135;28;7047;-75
2023/12/01 01:26:34;;;;;;;;;;;;;;;5.87;57.91;99280.53;4999933;28;6990;-74
2023/12/01 01:29:00;;;;;;;;;;;;;;;5.85;58.14;99282.16;4990087;28;7998;-74
2023/12/01 01:31:25;;;;;;;;;;;;;;;5.82;57.79;99271.84;4989528;28;6856;-75
2023/12/01 01:33:51;;;;;;;;;;;;;;;5.82;57.86;99285.41;4974492;28;6998;-75
2023/12/01 01:36:18;;;;;;;;;;;;;;;5.81;57.71;99290.44;4985196;28;8527;-75
2023/12/01 01:38:43;;;;;;;;;;;;;;;5.79;58.10;99280.19;4999000;28;6994;-75
2023/12/01 01:41:09;;;;;;;;;;;;;;;5.81;57.49;99281.13;4982949;28;6787;-75
2023/12/01 01:43:34;;;;;;;;;;;;;;;5.82;57.84;99287.94;4999612;28;6980;-75
2023/12/01 01:46:09;;;;;;;;;;;;;;;5.84;57.80;99290.56;4983692;28;6792;-74
2023/12/01 01:48:35;;;;;;;;;;;;;;;5.82;57.40;99294.72;4983767;28;7169;-75
2023/12/01 01:51:02;;;;;;;;;;;;;;;5.80;57.38;99289.56;4983934;28;7121;-75
2023/12/01 01:53:27;;;;;;;;;;;;;;;5.76;57.47;99289.31;4993798;28;6800;-74
2023/12/01 01:55:55;;;;;;;;;;;;;;;5.71;57.57;99294.19;4973716;28;6783;-74
2023/12/01 01:58:20;;;;;;;;;;;;;;;5.69;57.74;99300.88;4964699;28;8097;-74
2023/12/01 02:00:49;;;;;;;;;;;;;;;5.66;57.39;99296.50;4966312;28;7225;-74
2023/12/01 02:03:23;;;;;;;;;;;;;;;5.67;57.68;99297.38;4981404;28;6958;-74
2023/12/01 02:05:49;;;;;;;;;;;;;;;5.68;58.17;99299.13;4976555;28;6950;-74
2023/12/01 02:08:28;;;;;;;;;;;;;;;5.70;57.62;99295.88;4977165;28;6831;-74
2023/12/01 02:10:55;;;;;;;;;;;;;;;5.72;57.67;99297.59;4982557;28;8077;-75
2023/12/01 02:13:22;;;;;;;;;;;;;;;5.72;57.37;99301.00;4982528;28;7932;-76
2023/12/01 02:15:48;;;;;;;;;;;;;;;5.69;57.09;99296.63;4981061;28;7013;-75
2023/12/01 02:18:19;;;;;;;;;;;;;;;5.66;57.56;99293.94;4982756;28;6967;-75
2023/12/01 02:20:45;;;;;;;;;;;;;;;5.64;57.46;99303.19;4982777;28;6829;-74
2023/12/01 02:23:10;;;;;;;;;;;;;;;5.63;57.61;99301.44;4980512;28;6960;-75
2023/12/01 02:25:36;;;;;;;;;;;;;;;5.62;57.15;99298.81;4999809;28;6799;-75
2023/12/01 02:28:01;;;;;;;;;;;;;;;5.61;57.19;99292.88;4983849;28;7334;-74
2023/12/01 02:30:27;;;;;;;;;;;;;;;5.59;57.06;99289.34;4981640;28;6970;-77
2023/12/01 02:32:52;;;;;;;;;;;;;;;5.60;57.44;99295.31;4982146;28;8335;-77
2023/12/01 02:35:18;;;;;;;;;;;;;;;5.60;57.33;99297.84;4979485;28;6961;-77
2023/12/01 02:37:44;;;;;;;;;;;;;;;5.60;57.27;99297.84;4964439;28;6956;-77
2023/12/01 02:40:16;;;;;;;;;;;;;;;5.57;57.07;99301.13;4983373;28;6999;-77
2023/12/01 02:42:46;;;;;;;;;;;;;;;5.51;57.83;99300.81;4997189;28;6896;-76
2023/12/01 02:45:11;;;;;;;;;;;;;;;5.44;57.01;99308.94;4984346;28;6800;-77
2023/12/01 02:47:37;;;;;;;;;;;;;;;5.35;57.03;99294.94;4999480;28;6978;-77
2023/12/01 02:50:03;;;;;;;;;;;;;;;5.30;57.22;99295.50;4984853;28;6816;-76
2023/12/01 02:52:28;;;;;;;;;;;;;;;5.24;57.04;99309.63;4960761;28;8151;-77
2023/12/01 02:54:54;;;;;;;;;;;;;;;5.19;57.50;99302.56;5000611;28;7219;-77
2023/12/01 02:57:19;;;;;;;;;;;;;;;5.14;57.46;99312.50;4983631;28;6795;-77
2023/12/01 02:59:45;;;;;;;;;;;;;;;5.10;57.50;99318.22;4981034;28;6776;-76
2023/12/01 03:02:10;;;;;;;;;;;;;;;5.06;57.71;99319.72;4977942;28;7012;-75
2023/12/01 03:04:36;;;;;;;;;;;;;;;4.99;57.98;99316.00;4996386;28;7072;-76
2023/12/01 03:07:04;;;;;;;;;;;;;;;4.94;57.55;99324.16;4966729;28;7004;-77
2023/12/01 03:09:29;;;;;;;;;;;;;;;4.86;57.80;99313.56;4985504;28;7016;-76
2023/12/01 03:11:55;;;;;;;;;;;;;;;4.83;58.03;99319.38;4980720;28;8023;-76
2023/12/01 03:14:22;;;;;;;;;;;;;;;4.80;58.19;99319.19;4984194;28;7224;-77
2023/12/01 03:16:48;;;;;;;;;;;;;;;4.79;57.93;99322.53;5001386;28;6808;-77
2023/12/01 03:19:14;;;;;;;;;;;;;;;4.76;58.36;99322.38;5003194;28;6880;-76
2023/12/01 03:21:40;;;;;;;;;;;;;;;4.77;58.22;99324.13;4983417;28;6792;-76
2023/12/01 03:24:09;;;;;;;;;;;;;;;4.74;58.37;99326.50;4987683;28;6784;-76
2023/12/01 03:26:37;;;;;;;;;;;;;;;4.70;58.34;99327.09;5002529;28;7270;-77
2023/12/01 03:29:03;;;;;;;;;;;;;;;4.70;58.39;99329.66;5003159;28;6980;-76
2023/12/01 03:31:28;;;;;;;;;;;;;;;4.69;58.59;99327.91;4971497;28;8666;-77
2023/12/01 03:33:54;;;;;;;;;;;;;;;4.70;58.71;99332.19;4989622;28;8106;-76
2023/12/01 03:36:21;;;;;;;;;;;;;;;4.72;58.59;99335.69;5003318;28;6791;-76
2023/12/01 03:38:47;;;;;;;;;;;;;;;4.72;58.80;99339.09;4987251;28;6950;-76
2023/12/01 03:41:12;;;;;;;;;;;;;;;4.73;58.16;99347.56;5002533;28;6812;-72
2023/12/01 03:43:38;;;;;;;;;;;;;;;4.69;58.68;99338.94;5003032;28;7186;-74
2023/12/01 03:46:04;;;;;;;;;;;;;;;4.67;58.12;99350.66;4986689;28;6938;-74
2023/12/01 03:48:31;;;;;;;;;;;;;;;4.66;58.58;99355.66;4986318;28;7152;-75
2023/12/01 03:50:57;;;;;;;;;;;;;;;4.65;58.24;99353.94;5005149;28;6800;-73
2023/12/01 03:53:22;;;;;;;;;;;;;;;4.67;58.34;99354.88;4988791;28;6856;-73
2023/12/01 03:55:48;;;;;;;;;;;;;;;4.66;58.32;99353.97;4988703;28;6791;-74
2023/12/01 03:58:13;;;;;;;;;;;;;;;4.67;58.33;99355.72;4985632;28;6787;-73
2023/12/01 04:00:39;;;;;;;;;;;;;;;4.67;58.79;99358.28;4987506;28;6942;-73
2023/12/01 04:03:04;;;;;;;;;;;;;;;4.67;58.52;99355.72;4998668;28;6849;-73
2023/12/01 04:05:30;;;;;;;;;;;;;;;4.64;58.76;99358.09;4985858;28;6783;-74
2023/12/01 04:07:56;;;;;;;;;;;;;;;4.63;58.27;99360.56;5002186;28;6807;-73
2023/12/01 04:10:22;;;;;;;;;;;;;;;4.60;58.76;99366.38;4961250;28;7393;-73
2023/12/01 04:12:47;;;;;;;;;;;;;;;4.58;58.37;99363.72;4981433;28;7226;-75
2023/12/01 04:15:14;;;;;;;;;;;;;;;4.59;58.63;99373.09;4980186;28;7191;-72
2023/12/01 04:17:42;;;;;;;;;;;;;;;4.59;58.38;99378.16;4965223;28;7081;-73
2023/12/01 04:20:20;;;;;;;;;;;;;;;4.61;58.43;99383.34;4983806;28;9272;-73
2023/12/01 04:22:50;;;;;;;;;;;;;;;4.62;58.72;99384.19;4957967;28;7040;-72
2023/12/01 04:25:16;;;;;;;;;;;;;;;4.64;58.46;99392.78;4981167;28;8043;-75
2023/12/01 04:27:44;;;;;;;;;;;;;;;4.65;58.77;99386.91;4960546;28;7050;-75
2023/12/01 04:30:14;;;;;;;;;;;;;;;4.65;58.55;99390.31;4976009;28;7171;-72
2023/12/01 04:32:44;;;;;;;;;;;;;;;4.65;59.22;99382.69;4962532;28;7266;-74
2023/12/01 04:35:13;;;;;;;;;;;;;;;4.68;59.05;99393.03;4979475;28;7179;-73
2023/12/01 04:37:42;;;;;;;;;;;;;;;4.70;58.44;99398.19;4990900;28;7088;-74
2023/12/01 04:40:14;;;;;;;;;;;;;;;4.72;58.43;99396.59;5001315;28;6868;-73
2023/12/01 04:42:46;;;;;;;;;;;;;;;4.74;58.78;99400.13;4981304;28;7066;-72
2023/12/01 04:45:20;;;;;;;;;;;;;;;4.77;58.21;99395.19;4981557;28;6799;-72
2023/12/01 04:47:50;;;;;;;;;;;;;;;4.77;58.71;99391.78;4983330;28;6989;-74
2023/12/01 04:50:19;;;;;;;;;;;;;;;4.77;58.80;99400.28;4970326;28;7082;-72
2023/12/01 04:52:50;;;;;;;;;;;;;;;4.77;58.45;99391.78;4982950;28;6994;-72
2023/12/01 04:55:23;;;;;;;;;;;;;;;4.76;58.90;99390.91;5000147;28;6994;-73
2023/12/01 04:57:48;;;;;;;;;;;;;;;4.76;58.85;99398.53;4997979;28;7198;-75
2023/12/01 05:00:19;;;;;;;;;;;;;;;4.78;58.60;99401.13;4982973;28;6792;-72
2023/12/01 05:02:59;;;;;;;;;;;;;;;4.77;58.75;99387.59;4984521;28;7042;-72
2023/12/01 05:05:26;;;;;;;;;;;;;;;4.79;58.72;99395.31;4995227;28;6816;-73
2023/12/01 05:07:57;;;;;;;;;;;;;;;4.80;58.32;99400.44;4984267;28;8032;-74
2023/12/01 05:10:24;;;;;;;;;;;;;;;4.83;59.05;99404.81;4979196;28;8093;-73
2023/12/01 05:12:54;;;;;;;;;;;;;;;4.85;58.80;99404.13;4982915;28;7223;-72
2023/12/01 05:15:25;;;;;;;;;;;;;;;4.91;58.59;99406.13;4996690;28;7002;-73
2023/12/01 05:17:53;;;;;;;;;;;;;;;4.96;58.68;99407.22;4983644;28;7082;-72
2023/12/01 05:20:19;;;;;;;;;;;;;;;4.99;58.68;99406.53;4983609;28;7025;-73
2023/12/01 05:22:53;;;;;;;;;;;;;;;5.00;58.79;99408.28;4998855;28;6800;-72
2023/12/01 05:25:21;;;;;;;;;;;;;;;4.99;58.64;99406.53;4983563;28;6804;-73
2023/12/01 05:27:52;;;;;;;;;;;;;;;4.98;58.31;99414.94;4983765;28;7236;-75
2023/12/01 05:30:23;;;;;;;;;;;;;;;4.96;58.71;99419.06;4981612;28;6989;-73
2023/12/01 05:32:51;;;;;;;;;;;;;;;4.95;58.47;99419.88;4984526;28;7206;-72
2023/12/01 05:35:17;;;;;;;;;;;;;;;4.96;58.42;99419.06;4998303;28;6846;-75
2023/12/01 05:37:47;;;;;;;;;;;;;;;4.96;58.57;99419.94;4998191;28;7688;-72
2023/12/01 05:40:20;;;;;;;;;;;;;;;4.98;58.73;99425.09;4959243;28;7253;-72
2023/12/01 05:42:47;;;;;;;;;;;;;;;4.98;58.24;99417.47;4982213;28;6948;-73
2023/12/01 05:45:15;;;;;;;;;;;;;;;4.97;58.41;99429.31;4983824;28;6956;-72
2023/12/01 05:47:42;;;;;;;;;;;;;;;4.96;58.17;99421.59;4999753;28;6975;-73
2023/12/01 05:50:13;;;;;;;;;;;;;;;4.95;57.94;99419.88;4999874;28;7090;-74
2023/12/01 05:52:41;;;;;;;;;;;;;;;4.95;58.25;99424.94;4982927;28;7388;-72
2023/12/01 05:55:14;;;;;;;;;;;;;;;4.95;57.91;99430.88;4963508;28;7024;-72
2023/12/01 05:57:44;;;;;;;;;;;;;;;4.96;58.02;99440.25;4982768;28;7234;-72
2023/12/01 06:00:15;;;;;;;;;;;;;;;4.95;58.12;99438.50;4984502;28;6808;-74
2023/12/01 06:02:45;;;;;;;;;;;;;;;4.96;58.23;99427.53;4997214;28;11587;-74
2023/12/01 06:05:12;;;;;;;;;;;;;;;4.98;58.01;99435.25;4963462;28;6835;-74
2023/12/01 06:07:39;;;;;;;;;;;;;;;5.02;57.88;99446.47;4982300;28;7539;-74
2023/12/01 06:10:05;;;;;;;;;;;;;;;5.03;57.84;99441.47;4983921;28;7127;-74
2023/12/01 06:12:33;;;;;;;;;;;;;;;5.07;58.03;99438.31;4978559;28;7180;-74
2023/12/01 06:14:59;;;;;;;;;;;;;;;5.12;57.82;99448.72;4983232;28;6880;-73
2023/12/01 06:17:24;;;;;;;;;;;;;;;5.17;57.35;99438.81;4983720;28;7135;-74
2023/12/01 06:19:50;;;;;;;;;;;;;;;5.20;57.66;99432.22;4978118;28;6788;-74
2023/12/01 06:22:15;;;;;;;;;;;;;;;5.24;57.36;99436.66;4983343;28;6966;-73
2023/12/01 06:24:41;;;;;;;;;;;;;;;5.26;57.24;99446.91;4983555;28;6792;-73
2023/12/01 06:27:07;;;;;;;;;;;;;;;5.27;57.61;99449.56;4984645;28;6967;-73
2023/12/01 06:29:32;;;;;;;;;;;;;;;5.30;57.91;99453.06;4983176;28;7983;-74
2023/12/01 06:31:58;;;;;;;;;;;;;;;5.31;57.60;99455.69;4980734;28;6815;-73
2023/12/01 06:34:24;;;;;;;;;;;;;;;5.33;57.18;99451.56;4979322;28;6962;-74
2023/12/01 06:36:49;;;;;;;;;;;;;;;5.33;57.30;99455.75;4984688;28;6799;-74
2023/12/01 06:39:15;;;;;;;;;;;;;;;5.33;57.12;99458.28;4979016;28;6832;-74
2023/12/01 06:41:41;;;;;;;;;;;;;;;5.30;57.10;99464.06;4977225;28;9622;-73
2023/12/01 06:44:07;;;;;;;;;;;;;;;5.30;57.02;99458.13;4996899;28;6863;-73
2023/12/01 06:46:33;;;;;;;;;;;;;;;5.29;56.98;99462.31;4996966;28;6784;-73
2023/12/01 06:48:59;;;;;;;;;;;;;;;5.30;57.03;99465.75;4996790;28;6856;-73
2023/12/01 06:51:25;;;;;;;;;;;;;;;5.30;57.23;99468.28;4997733;28;6934;-74
2023/12/01 06:53:50;;;;;;;;;;;;;;;5.32;57.05;99471.78;4962247;28;7133;-73
2023/12/01 06:56:16;;;;;;;;;;;;;;;5.33;56.70;99471.88;4980206;28;9596;-73
2023/12/01 06:58:41;;;;;;;;;;;;;;;5.35;56.53;99461.78;4997920;28;7372;-73
2023/12/01 07:01:07;;;;;;;;;;;;;;;5.35;56.46;99472.81;4975408;28;8680;-73
2023/12/01 07:03:33;;;;;;;;;;;;;;;5.35;56.71;99477.91;4979783;28;7042;-74
2023/12/01 07:05:59;;;;;;;;;;;;;;;5.38;56.53;99484.84;4984932;28;6867;-72
2023/12/01 07:08:25;;;;;;;;;;;;;;;5.38;56.38;99490.78;4997406;28;7109;-74
2023/12/01 07:10:51;;;;;;;;;;;;;;;5.38;56.20;99484.84;4983604;28;6795;-72
2023/12/01 07:13:17;;;;;;;;;;;;;;;5.38;56.47;99483.16;5000820;28;7192;-72
2023/12/01 07:15:43;;;;;;;;;;;;;;;5.39;55.95;99484.91;4984334;28;6873;-72
2023/12/01 07:18:09;;;;;;;;;;;;;;;5.40;56.09;99480.69;5001742;28;6800;-71
2023/12/01 07:20:35;;;;;;;;;;;;;;;5.40;55.85;99481.56;4998141;28;6831;-71
2023/12/01 07:23:01;;;;;;;;;;;;;;;5.40;56.08;99481.56;4980009;28;7449;-73
2023/12/01 07:25:26;;;;;;;;;;;;;;;5.41;56.04;99480.78;4998838;28;6795;-72
2023/12/01 07:27:55;;;;;;;;;;;;;;;5.42;55.93;99484.19;4983949;28;6953;-73
2023/12/01 07:30:21;;;;;;;;;;;;;;;5.42;56.04;99482.53;4985186;28;7231;-72
2023/12/01 07:32:47;;;;;;;;;;;;;;;5.41;55.94;99475.72;4992450;28;8829;-73
2023/12/01 07:35:13;;;;;;;;;;;;;;;5.40;56.04;99479.00;4983599;28;6812;-72
2023/12/01 07:37:42;;;;;;;;;;;;;;;5.40;56.25;99484.09;4980352;28;6799;-71
2023/12/01 07:40:12;;;;;;;;;;;;;;;5.39;55.95;99484.03;4982246;28;7570;-72
2023/12/01 07:42:38;;;;;;;;;;;;;;;5.38;55.74;99485.69;4984465;28;7032;-71
2023/12/01 07:45:07;;;;;;;;;;;;;;;5.38;56.17;99483.16;4998425;28;7008;-74
2023/12/01 07:47:34;;;;;;;;;;;;;;;5.39;56.40;99484.91;4980750;28;7241;-72
2023/12/01 07:49:59;;;;;;;;;;;;;;;5.40;55.95;99490.88;4960123;28;7256;-72
2023/12/01 07:52:25;;;;;;;;;;;;;;;5.39;56.25;99500.13;4980473;28;6855;-72
2023/12/01 07:54:50;;;;;;;;;;;;;;;5.38;56.51;99500.94;4981551;28;6784;-72
2023/12/01 07:57:16;;;;;;;;;;;;;;;5.36;56.25;99494.91;4983237;28;6779;-71
2023/12/01 07:59:41;;;;;;;;;;;;;;;5.37;56.31;99505.97;4998045;28;6966;-72
2023/12/01 08:02:09;;;;;;;;;;;;;;;5.35;56.55;99503.31;4996809;28;6787;-73
2023/12/01 08:04:34;;;;;;;;;;;;;;;5.33;56.59;99509.09;4982907;28;6982;-71
2023/12/01 08:07:00;;;;;;;;;;;;;;;5.34;56.66;99509.19;4968407;28;6935;-72
2023/12/01 08:09:25;;;;;;;;;;;;;;;5.35;56.37;99508.41;4984943;28;7067;-72
2023/12/01 08:11:51;;;;;;;;;;;;;;;5.35;56.47;99517.69;4982295;28;6887;-72
2023/12/01 08:14:16;;;;;;;;;;;;;;;5.36;56.61;99515.25;4985676;28;7192;-72
2023/12/01 08:16:42;;;;;;;;;;;;;;;5.37;56.83;99522.06;4967698;28;7023;-70
2023/12/01 08:19:09;;;;;;;;;;;;;;;5.39;56.69;99522.16;5000356;28;6799;-74
2023/12/01 08:21:38;;;;;;;;;;;;;;;5.42;56.74;99524.84;5000962;28;6989;-73
2023/12/01 08:24:04;;;;;;;;;;;;;;;5.42;56.25;99523.22;4986546;28;6986;-73
2023/12/01 08:26:32;;;;;;;;;;;;;;;5.42;56.56;99520.66;4995580;28;7791;-73
2023/12/01 08:28:58;;;;;;;;;;;;;;;5.43;56.38;99521.53;4984931;28;6803;-73
2023/12/01 08:31:24;;;;;;;;;;;;;;;5.44;56.69;99519.88;4982245;28;7226;-73
2023/12/01 08:33:50;;;;;;;;;;;;;;;5.43;56.36;99516.44;4985634;28;8583;-73
2023/12/01 08:36:18;;;;;;;;;;;;;;;5.45;56.47;99519.06;4986147;28;7912;-73
2023/12/01 08:38:43;;;;;;;;;;;;;;;5.49;55.99;99526.06;4985713;28;6799;-73
2023/12/01 08:41:09;;;;;;;;;;;;;;;5.51;56.26;99521.97;4985024;28;7927;-73
2023/12/01 08:43:35;;;;;;;;;;;;;;;5.55;56.39;99531.50;4984533;28;6784;-72
2023/12/01 08:46:00;;;;;;;;;;;;;;;5.58;56.21;99529.09;4982302;28;7023;-72
2023/12/01 08:48:26;;;;;;;;;;;;;;;5.62;55.80;99531.03;5003028;28;6783;-73
2023/12/01 08:50:51;;;;;;;;;;;;;;;5.68;55.91;99535.56;4981582;28;6859;-73
2023/12/01 08:53:17;;;;;;;;;;;;;;;5.71;55.54;99535.72;4985738;28;6877;-72
2023/12/01 08:55:42;;;;;;;;;;;;;;;5.73;55.59;99531.59;4981238;28;7161;-73
2023/12/01 08:58:08;;;;;;;;;;;;;;;5.75;54.94;99536.78;4983940;28;7175;-72
2023/12/01 09:00:34;;;;;;;;;;;;;;;5.77;55.50;99535.19;4998591;28;6788;-73
2023/12/01 09:03:00;;;;;;;;;;;;;;;5.79;55.48;99531.94;5002638;28;6804;-73
2023/12/01 09:05:25;;;;;;;;;;;;;;;5.83;55.30;99538.91;5002967;28;6813;-74
2023/12/01 09:07:51;;;;;;;;;;;;;;;5.85;55.02;99536.47;4988886;28;7174;-73
2023/12/01 09:10:19;;;;;;;;;;;;;;;5.90;54.94;99537.59;4986946;28;6836;-73
2023/12/01 09:12:45;;;;;;;;;;;;;;;5.92;55.27;99538.53;4986376;28;6807;-73
2023/12/01 09:15:11;;;;;;;;;;;;;;;5.94;54.71;99542.03;4985723;28;6926;-72
2023/12/01 09:17:37;;;;;;;;;;;;;;;5.96;54.73;99545.53;4982804;28;6984;-72
2023/12/01 09:20:03;;;;;;;;;;;;;;;6.00;54.61;99548.25;4986661;28;6792;-73
2023/12/01 09:22:28;;;;;;;;;;;;;;;6.02;54.32;99549.25;5003024;28;7234;-72
2023/12/01 09:24:54;;;;;;;;;;;;;;;6.06;54.04;99546.03;4986834;28;6799;-72
2023/12/01 09:27:19;;;;;;;;;;;;;;;6.09;54.98;99547.09;4978158;28;7737;-73
2023/12/01 09:29:45;;;;;;;;;;;;;;;6.11;54.54;99542.94;4983172;28;6999;-73
2023/12/01 09:32:10;;;;;;;;;;;;;;;6.13;53.75;99547.22;4983574;28;7376;-72
2023/12/01 09:34:36;;;;;;;;;;;;;;;6.13;53.78;99540.50;4983778;28;6944;-72
2023/12/01 09:37:01;;;;;;;;;;;;;;;6.13;53.87;99544.69;4984294;28;6958;-71
2023/12/01 09:39:27;;;;;;;;;;;;;;;6.15;53.48;99548.22;4984196;28;7158;-74
2023/12/01 09:41:55;;;;;;;;;;;;;;;6.16;54.15;99549.97;4979905;28;6783;-72
2023/12/01 09:44:20;;;;;;;;;;;;;;;6.20;53.99;99552.75;4977553;28;8014;-71
2023/12/01 09:46:48;;;;;;;;;;;;;;;6.25;53.93;99558.94;4997763;28;6863;-73
2023/12/01 09:49:14;;;;;;;;;;;;;;;6.30;53.33;99560.84;4982721;28;6879;-72
2023/12/01 09:51:39;;;;;;;;;;;;;;;6.33;53.32;99566.09;4982441;28;6971;-71
2023/12/01 09:54:05;;;;;;;;;;;;;;;6.35;53.85;99570.47;4991302;28;7978;-71
2023/12/01 09:56:31;;;;;;;;;;;;;;;6.36;53.67;99571.34;4982428;28;6962;-72
2023/12/01 09:58:57;;;;;;;;;;;;;;;6.37;53.52;99570.53;4980782;28;8247;-71
2023/12/01 10:01:24;;;;;;;;;;;;;;;6.34;52.93;99566.19;4999748;28;7556;-71
2023/12/01 10:03:49;;;;;;;;;;;;;;;6.35;52.79;99567.94;5001797;28;6796;-74
2023/12/01 10:06:16;;;;;;;;;;;;;;;6.34;52.78;99566.19;4982655;28;6788;-72
2023/12/01 10:08:41;;;;;;;;;;;;;;;6.33;52.70;99566.09;4984876;28;7394;-74
2023/12/01 10:11:21;;;;;;;;;;;;;;;6.31;52.71;99567.69;4984825;28;7359;-72
2023/12/01 10:13:51;;;;;;;;;;;;;;;6.28;52.88;99567.50;4985474;28;6796;-72
2023/12/01 10:16:18;;;;;;;;;;;;;;;6.24;53.23;99567.38;4957614;28;7432;-74
2023/12/01 10:19:00;;;;;;;;;;;;;;;6.19;53.00;99558.63;4958139;28;8608;-74
2023/12/01 10:21:47;;;;;;;;;;;;;;;6.15;53.31;99563.47;4979487;28;7257;-74
2023/12/01 10:24:16;;;;;;;;;;;;;;;6.12;52.94;99556.56;4996316;28;7094;-73
2023/12/01 10:26:42;;;;;;;;;;;;;;;6.11;53.52;99563.28;4972290;28;7670;-72
2023/12/01 10:29:23;;;;;;;;;;;;;;;6.11;53.21;99567.53;4956873;28;7751;-72
2023/12/01 10:31:48;;;;;;;;;;;;;;;6.17;53.35;99562.75;4995519;28;6843;-74
2023/12/01 10:34:14;;;;;;;;;;;;;;;6.19;53.14;99567.91;4965125;28;7201;-71
2023/12/01 10:36:41;;;;;;;;;;;;;;;6.21;53.36;99562.13;4982757;28;7058;-72
2023/12/01 10:39:10;;;;;;;;;;;;;;;6.27;53.50;99565.75;4998212;28;7236;-72
2023/12/01 10:41:39;;;;;;;;;;;;;;;6.28;53.44;99564.97;4982907;28;7137;-75
2023/12/01 10:44:05;;;;;;;;;;;;;;;6.32;53.63;99564.34;4983302;28;6945;-74
2023/12/01 10:46:32;;;;;;;;;;;;;;;6.33;53.59;99566.97;4980234;28;6796;-74
2023/12/01 10:48:59;;;;;;;;;;;;;;;6.33;53.58;99566.09;4979862;28;6991;-75
2023/12/01 10:51:25;;;;;;;;;;;;;;;6.32;53.05;99561.81;4983292;28;7043;-75
2023/12/01 10:53:53;;;;;;;;;;;;;;;6.29;53.32;99562.50;4998488;28;8065;-75
2023/12/01 10:56:20;;;;;;;;;;;;;;;6.25;53.54;99552.97;4982078;28;7150;-75
2023/12/01 10:58:52;;;;;;;;;;;;;;;6.27;53.22;99560.69;4979907;28;7270;-75
2023/12/01 11:01:18;;;;;;;;;;;;;;;6.27;53.68;99550.50;4980521;28;6986;-74
2023/12/01 11:03:47;;;;;;;;;;;;;;;6.27;53.36;99553.03;4965766;28;6987;-75
2023/12/01 11:06:35;;;;;;;;;;;;;;;6.24;53.30;99553.78;4981139;28;6820;-74
2023/12/01 11:09:24;;;;;;;;;;;;;;;6.20;52.83;99545.09;4996826;28;6978;-75
2023/12/01 11:12:02;;;;;;;;;;;;;;;6.21;53.50;99546.84;4979304;28;7128;-74
2023/12/01 11:14:30;;;;;;;;;;;;;;;6.21;53.07;99541.78;4973781;28;7069;-74
2023/12/01 11:16:56;;;;;;;;;;;;;;;6.23;53.30;99549.50;4977931;28;7023;-74
2023/12/01 11:19:23;;;;;;;;;;;;;;;6.23;53.27;99545.25;4978692;28;7334;-74
2023/12/01 11:21:56;;;;;;;;;;;;;;;6.21;53.22;99549.41;4981521;28;7254;-75
2023/12/01 11:24:32;;;;;;;;;;;;;;;6.17;52.63;99547.47;4981439;28;7394;-75
2023/12/01 11:27:05;;;;;;;;;;;;;;;6.12;53.25;99556.56;4967167;28;7000;-74
2023/12/01 11:29:36;;;;;;;;;;;;;;;6.05;52.99;99557.91;4982152;28;6804;-75
2023/12/01 11:32:03;;;;;;;;;;;;;;;5.98;53.01;99556.66;4980898;28;8011;-75
2023/12/01 11:34:29;;;;;;;;;;;;;;;5.91;53.02;99558.81;4982272;28;6882;-75
2023/12/01 11:36:55;;;;;;;;;;;;;;;5.81;53.07;99554.91;4982024;28;6799;-75
2023/12/01 11:39:27;;;;;;;;;;;;;;;5.74;53.01;99555.38;4985324;28;7026;-75
2023/12/01 11:41:58;;;;;;;;;;;;;;;5.66;53.33;99563.44;4968222;28;7163;-75
2023/12/01 11:44:27;;;;;;;;;;;;;;;5.61;53.88;99561.44;5000742;28;7074;-75
2023/12/01 11:46:57;;;;;;;;;;;;;;;5.54;53.19;99562.78;4964435;28;7953;-75
2023/12/01 11:49:30;;;;;;;;;;;;;;;5.48;53.78;99562.44;4985077;28;6873;-74
2023/12/01 11:51:56;;;;;;;;;;;;;;;5.44;53.62;99558.00;4968755;28;7023;-75
2023/12/01 11:54:23;;;;;;;;;;;;;;;5.42;54.12;99563.88;4985027;28;7149;-75
2023/12/01 11:56:55;;;;;;;;;;;;;;;5.40;53.94;99557.81;4982559;28;8104;-74
2023/12/01 11:59:21;;;;;;;;;;;;;;;5.37;53.94;99557.66;4984347;28;7153;-75
2023/12/01 12:01:47;;;;;;;;;;;;;;;5.35;54.06;99554.16;4984708;28;6819;-74
2023/12/01 12:04:16;;;;;;;;;;;;;;;5.35;54.17;99565.97;4985889;28;7292;-74
2023/12/01 12:06:45;;;;;;;;;;;;;;;5.33;54.20;99565.91;4986346;28;7134;-74
2023/12/01 12:09:17;;;;;;;;;;;;;;;5.33;54.16;99568.44;4998419;28;6907;-74
2023/12/01 12:11:43;;;;;;;;;;;;;;;5.31;54.11;99581.84;4985378;28;6828;-74
2023/12/01 12:14:09;;;;;;;;;;;;;;;5.30;54.50;99580.97;4987560;28;6998;-74
2023/12/01 12:16:34;;;;;;;;;;;;;;;5.30;54.70;99586.03;4999885;28;7184;-74
2023/12/01 12:19:00;;;;;;;;;;;;;;;5.33;54.50;99596.41;4989374;28;7186;-74
2023/12/01 12:21:27;;;;;;;;;;;;;;;5.35;54.35;99589.72;4984908;28;6990;-74
2023/12/01 12:23:54;;;;;;;;;;;;;;;5.39;54.46;99589.09;4981272;28;6884;-74
2023/12/01 12:26:22;;;;;;;;;;;;;;;5.41;54.12;99585.00;4997428;28;7353;-75
2023/12/01 12:28:59;;;;;;;;;;;;;;;5.44;54.24;99593.56;4986942;28;6815;-74
2023/12/01 12:31:27;;;;;;;;;;;;;;;5.46;54.76;99589.44;4980991;28;7026;-75
2023/12/01 12:33:53;;;;;;;;;;;;;;;5.47;54.15;99587.00;4983848;28;6791;-75
2023/12/01 12:36:20;;;;;;;;;;;;;;;5.49;54.22;99590.50;5027868;23;6935;-75
2023/12/01 12:38:48;;;;;;;;;;;;;;;5.50;54.12;99588.81;4976632;28;7624;-76
2023/12/01 12:41:40;;;;;;;;;;;;;;;5.52;54.15;99592.34;4979093;28;7664;-76
2023/12/01 12:44:09;;;;;;;;;;;;;;;5.53;53.81;99592.41;4964739;28;7103;-75
2023/12/01 12:46:35;;;;;;;;;;;;;;;5.57;54.09;99596.00;4978308;28;7296;-76
2023/12/01 12:49:07;;;;;;;;;;;;;;;5.60;53.94;99601.25;4975665;28;6820;-76
2023/12/01 12:51:33;;;;;;;;;;;;;;;5.62;53.56;99604.75;4985329;28;6807;-76
2023/12/01 12:53:59;;;;;;;;;;;;;;;5.61;53.63;99600.47;4984889;28;6783;-75
2023/12/01 12:56:25;;;;;;;;;;;;;;;5.63;53.70;99603.97;4966079;28;6946;-76
2023/12/01 12:58:53;;;;;;;;;;;;;;;5.64;53.48;99608.25;4980210;28;7238;-76
2023/12/01 13:01:19;;;;;;;;;;;;;;;5.66;54.15;99605.81;4959791;28;7009;-86
2023/12/01 13:03:45;;;;;;;;;;;;;;;5.67;53.35;99610.97;4986080;28;6856;-85
2023/12/01 13:06:11;;;;;;;;;;;;;;;5.70;53.46;99613.69;4988864;28;6940;-86
2023/12/01 13:08:38;;;;;;;;;;;;;;;5.69;52.89;99614.44;4986581;28;7013;-85